sensor_id;sensor_type;location;lat;lon;timestamp;pressure;altitude;pressure_sealevel;temperature;humidity
35435;BME280;21556;55.782;37.528;2022-07-10T00:01:14;99309.84;;;19.45;100.00
35435;BME280;21556;55.782;37.528;2022-07-10T00:03:40;99307.28;;;19.42;100.00
35435;BME280;21556;55.782;37.528;2022-07-10T00:06:06;99325.75;;;19.48;100.00
35435;BME280;21556;55.782;37.528;2022-07-10T00:08:32;99319.84;;;19.37;100.00
35435;BME280;21556;55.782;37.528;2022-07-10T00:10:58;99327.84;;;19.36;100.00
35435;BME280;21556;55.782;37.528;2022-07-10T00:13:25;99323.22;;;19.42;100.00
35435;BME280;21556;55.782;37.528;2022-07-10T00:15:51;99324.09;;;19.44;100.00
35435;BME280;21556;55.782;37.528;2022-07-10T00:18:17;99309.66;;;19.53;100.00
35435;BME280;21556;55.782;37.528;2022-07-10T00:20:42;99300.06;;;19.47;100.00
35435;BME280;21556;55.782;37.528;2022-07-10T00:23:08;99294.81;;;19.44;100.00
35435;BME280;21556;55.782;37.528;2022-07-10T00:25:34;99285.25;;;19.37;100.00
35435;BME280;21556;55.782;37.528;2022-07-10T00:28:00;99289.50;;;19.44;100.00
35435;BME280;21556;55.782;37.528;2022-07-10T00:30:26;99282.53;;;19.39;100.00
35435;BME280;21556;55.782;37.528;2022-07-10T00:32:52;99286.00;;;19.42;100.00
35435;BME280;21556;55.782;37.528;2022-07-10T00:35:19;99285.03;;;19.46;100.00
35435;BME280;21556;55.782;37.528;2022-07-10T00:37:45;99272.03;;;19.34;100.00
35435;BME280;21556;55.782;37.528;2022-07-10T00:40:11;99267.50;;;19.38;100.00
35435;BME280;21556;55.782;37.528;2022-07-10T00:42:37;99266.47;;;19.43;100.00
35435;BME280;21556;55.782;37.528;2022-07-10T00:45:04;99271.44;;;19.57;100.00
35435;BME280;21556;55.782;37.528;2022-07-10T00:47:30;99273.09;;;19.61;100.00
35435;BME280;21556;55.782;37.528;2022-07-10T00:49:58;99279.97;;;19.70;100.00
35435;BME280;21556;55.782;37.528;2022-07-10T00:52:24;99281.63;;;19.76;100.00
35435;BME280;21556;55.782;37.528;2022-07-10T00:54:54;99279.84;;;19.75;100.00
35435;BME280;21556;55.782;37.528;2022-07-10T00:57:20;99290.50;;;19.75;100.00
35435;BME280;21556;55.782;37.528;2022-07-10T00:59:49;99283.59;;;19.67;100.00
35435;BME280;21556;55.782;37.528;2022-07-10T01:02:16;99282.84;;;19.62;100.00
35435;BME280;21556;55.782;37.528;2022-07-10T01:04:42;99260.34;;;19.74;100.00
35435;BME280;21556;55.782;37.528;2022-07-10T01:07:08;99247.25;;;19.66;100.00
35435;BME280;21556;55.782;37.528;2022-07-10T01:09:34;99249.44;;;19.51;100.00
35435;BME280;21556;55.782;37.528;2022-07-10T01:12:01;99259.41;;;19.42;100.00
35435;BME280;21556;55.782;37.528;2022-07-10T01:14:30;99257.81;;;19.35;100.00
35435;BME280;21556;55.782;37.528;2022-07-10T01:16:57;99250.13;;;19.24;100.00
35435;BME280;21556;55.782;37.528;2022-07-10T01:19:24;99244.25;;;19.12;100.00
35435;BME280;21556;55.782;37.528;2022-07-10T01:21:49;99225.78;;;19.06;100.00
35435;BME280;21556;55.782;37.528;2022-07-10T01:24:18;99233.53;;;19.15;100.00
35435;BME280;21556;55.782;37.528;2022-07-10T01:26:44;99229.88;;;19.19;100.00
35435;BME280;21556;55.782;37.528;2022-07-10T01:29:10;99212.00;;;19.24;100.00
35435;BME280;21556;55.782;37.528;2022-07-10T01:31:39;99225.78;;;19.40;100.00
35435;BME280;21556;55.782;37.528;2022-07-10T01:34:07;99233.72;;;19.41;100.00
35435;BME280;21556;55.782;37.528;2022-07-10T01:36:34;99235.44;;;19.42;100.00
35435;BME280;21556;55.782;37.528;2022-07-10T01:39:00;99242.19;;;19.56;100.00
35435;BME280;21556;55.782;37.528;2022-07-10T01:41:27;99239.88;;;19.43;100.00
35435;BME280;21556;55.782;37.528;2022-07-10T01:43:53;99242.97;;;19.27;100.00
35435;BME280;21556;55.782;37.528;2022-07-10T01:46:20;99228.16;;;19.16;100.00
35435;BME280;21556;55.782;37.528;2022-07-10T01:48:46;99226.31;;;19.20;100.00
35435;BME280;21556;55.782;37.528;2022-07-10T01:51:12;99228.88;;;19.23;100.00
35435;BME280;21556;55.782;37.528;2022-07-10T01:53:39;99218.31;;;19.20;100.00
35435;BME280;21556;55.782;37.528;2022-07-10T01:56:08;99210.53;;;19.46;100.00
35435;BME280;21556;55.782;37.528;2022-07-10T01:58:34;99199.94;;;19.45;100.00
35435;BME280;21556;55.782;37.528;2022-07-10T02:01:00;99205.38;;;19.40;100.00
35435;BME280;21556;55.782;37.528;2022-07-10T02:03:26;99201.00;;;19.38;100.00
35435;BME280;21556;55.782;37.528;2022-07-10T02:06:11;99202.16;;;19.28;100.00
35435;BME280;21556;55.782;37.528;2022-07-10T02:08:36;99199.44;;;19.31;100.00
35435;BME280;21556;55.782;37.528;2022-07-10T02:11:02;99205.78;;;19.25;100.00
35435;BME280;21556;55.782;37.528;2022-07-10T02:13:31;99214.78;;;19.19;100.00
35435;BME280;21556;55.782;37.528;2022-07-10T02:15:58;99207.16;;;19.40;100.00
35435;BME280;21556;55.782;37.528;2022-07-10T02:18:24;99206.00;;;19.50;100.00
35435;BME280;21556;55.782;37.528;2022-07-10T02:20:51;99207.47;;;19.28;100.00
35435;BME280;21556;55.782;37.528;2022-07-10T02:23:17;99211.03;;;19.28;100.00
35435;BME280;21556;55.782;37.528;2022-07-10T02:25:43;99219.75;;;19.33;100.00
35435;BME280;21556;55.782;37.528;2022-07-10T02:28:09;99217.31;;;19.24;100.00
35435;BME280;21556;55.782;37.528;2022-07-10T02:30:35;99220.41;;;19.41;100.00
35435;BME280;21556;55.782;37.528;2022-07-10T02:33:01;99217.72;;;19.43;100.00
35435;BME280;21556;55.782;37.528;2022-07-10T02:35:28;99225.66;;;19.44;100.00
35435;BME280;21556;55.782;37.528;2022-07-10T02:37:54;99231.63;;;19.53;100.00
35435;BME280;21556;55.782;37.528;2022-07-10T02:40:20;99241.81;;;19.37;100.00
35435;BME280;21556;55.782;37.528;2022-07-10T02:42:45;99235.34;;;19.47;100.00
35435;BME280;21556;55.782;37.528;2022-07-10T02:45:11;99234.13;;;19.59;100.00
35435;BME280;21556;55.782;37.528;2022-07-10T02:47:38;99233.22;;;19.60;100.00
35435;BME280;21556;55.782;37.528;2022-07-10T02:50:04;99232.16;;;19.67;100.00
35435;BME280;21556;55.782;37.528;2022-07-10T02:52:31;99235.00;;;19.59;100.00
35435;BME280;21556;55.782;37.528;2022-07-10T02:54:57;99224.75;;;19.78;100.00
35435;BME280;21556;55.782;37.528;2022-07-10T02:57:24;99227.41;;;19.78;100.00
35435;BME280;21556;55.782;37.528;2022-07-10T02:59:50;99225.84;;;19.71;100.00
35435;BME280;21556;55.782;37.528;2022-07-10T03:02:19;99236.31;;;19.77;100.00
35435;BME280;21556;55.782;37.528;2022-07-10T03:04:44;99238.50;;;19.61;100.00
35435;BME280;21556;55.782;37.528;2022-07-10T03:07:10;99220.78;;;19.60;100.00
35435;BME280;21556;55.782;37.528;2022-07-10T03:09:36;99227.59;;;19.72;100.00
35435;BME280;21556;55.782;37.528;2022-07-10T03:12:02;99223.34;;;19.96;100.00
35435;BME280;21556;55.782;37.528;2022-07-10T03:14:29;99226.44;;;20.12;100.00
35435;BME280;21556;55.782;37.528;2022-07-10T03:16:55;99228.88;;;19.90;100.00
35435;BME280;21556;55.782;37.528;2022-07-10T03:19:21;99226.63;;;20.06;100.00
35435;BME280;21556;55.782;37.528;2022-07-10T03:21:46;99226.44;;;20.12;100.00
35435;BME280;21556;55.782;37.528;2022-07-10T03:24:14;99233.22;;;20.22;100.00
35435;BME280;21556;55.782;37.528;2022-07-10T03:26:39;99233.50;;;20.13;100.00
35435;BME280;21556;55.782;37.528;2022-07-10T03:29:05;99220.03;;;20.19;100.00
35435;BME280;21556;55.782;37.528;2022-07-10T03:31:31;99218.81;;;20.00;100.00
35435;BME280;21556;55.782;37.528;2022-07-10T03:33:57;99213.63;;;20.25;100.00
35435;BME280;21556;55.782;37.528;2022-07-10T03:36:24;99216.19;;;20.28;100.00
35435;BME280;21556;55.782;37.528;2022-07-10T03:38:54;99215.75;;;20.13;100.00
35435;BME280;21556;55.782;37.528;2022-07-10T03:41:23;99228.41;;;20.35;100.00
35435;BME280;21556;55.782;37.528;2022-07-10T03:43:49;99221.69;;;20.51;100.00
35435;BME280;21556;55.782;37.528;2022-07-10T03:46:14;99226.16;;;20.51;100.00
35435;BME280;21556;55.782;37.528;2022-07-10T03:48:40;99225.22;;;20.53;100.00
35435;BME280;21556;55.782;37.528;2022-07-10T03:51:07;99221.59;;;20.56;100.00
35435;BME280;21556;55.782;37.528;2022-07-10T03:53:33;99223.16;;;20.61;100.00
35435;BME280;21556;55.782;37.528;2022-07-10T03:55:59;99224.16;;;20.59;100.00
35435;BME280;21556;55.782;37.528;2022-07-10T03:58:26;99224.66;;;20.40;100.00
35435;BME280;21556;55.782;37.528;2022-07-10T04:00:52;99217.16;;;20.25;100.00
35435;BME280;21556;55.782;37.528;2022-07-10T04:03:18;99212.56;;;20.30;100.00
35435;BME280;21556;55.782;37.528;2022-07-10T04:05:44;99206.78;;;20.44;100.00
35435;BME280;21556;55.782;37.528;2022-07-10T04:08:09;99197.06;;;20.43;100.00
35435;BME280;21556;55.782;37.528;2022-07-10T04:10:36;99182.97;;;20.39;100.00
35435;BME280;21556;55.782;37.528;2022-07-10T04:13:02;99183.47;;;20.24;100.00
35435;BME280;21556;55.782;37.528;2022-07-10T04:15:28;99176.66;;;20.14;100.00
35435;BME280;21556;55.782;37.528;2022-07-10T04:17:54;99174.69;;;20.20;100.00
35435;BME280;21556;55.782;37.528;2022-07-10T04:20:20;99165.78;;;20.22;100.00
35435;BME280;21556;55.782;37.528;2022-07-10T04:22:47;99174.25;;;20.34;100.00
35435;BME280;21556;55.782;37.528;2022-07-10T04:25:13;99169.34;;;20.50;100.00
35435;BME280;21556;55.782;37.528;2022-07-10T04:27:39;99173.91;;;20.73;100.00
35435;BME280;21556;55.782;37.528;2022-07-10T04:30:06;99165.31;;;20.65;100.00
35435;BME280;21556;55.782;37.528;2022-07-10T04:32:32;99164.34;;;20.67;100.00
35435;BME280;21556;55.782;37.528;2022-07-10T04:34:58;99167.44;;;20.80;100.00
35435;BME280;21556;55.782;37.528;2022-07-10T04:37:24;99162.03;;;20.83;100.00
35435;BME280;21556;55.782;37.528;2022-07-10T04:39:50;99173.53;;;20.85;100.00
35435;BME280;21556;55.782;37.528;2022-07-10T04:42:16;99170.88;;;20.84;100.00
35435;BME280;21556;55.782;37.528;2022-07-10T04:44:42;99172.41;;;20.91;100.00
35435;BME280;21556;55.782;37.528;2022-07-10T04:47:08;99170.94;;;21.09;100.00
35435;BME280;21556;55.782;37.528;2022-07-10T04:49:34;99169.34;;;21.03;100.00
35435;BME280;21556;55.782;37.528;2022-07-10T04:52:00;99169.88;;;21.13;100.00
35435;BME280;21556;55.782;37.528;2022-07-10T04:54:26;99175.47;;;21.07;100.00
35435;BME280;21556;55.782;37.528;2022-07-10T04:56:53;99165.88;;;21.26;100.00
35435;BME280;21556;55.782;37.528;2022-07-10T04:59:19;99156.78;;;21.32;100.00
35435;BME280;21556;55.782;37.528;2022-07-10T05:01:45;99154.50;;;21.21;100.00
35435;BME280;21556;55.782;37.528;2022-07-10T05:04:11;99156.78;;;21.07;100.00
35435;BME280;21556;55.782;37.528;2022-07-10T05:06:37;99152.63;;;21.23;100.00
35435;BME280;21556;55.782;37.528;2022-07-10T05:09:03;99160.06;;;21.15;100.00
35435;BME280;21556;55.782;37.528;2022-07-10T05:11:29;99163.97;;;21.30;100.00
35435;BME280;21556;55.782;37.528;2022-07-10T05:13:57;99149.13;;;21.48;100.00
35435;BME280;21556;55.782;37.528;2022-07-10T05:16:23;99136.53;;;21.26;100.00
35435;BME280;21556;55.782;37.528;2022-07-10T05:18:49;99141.50;;;21.37;100.00
35435;BME280;21556;55.782;37.528;2022-07-10T05:21:15;99141.13;;;21.48;100.00
35435;BME280;21556;55.782;37.528;2022-07-10T05:23:42;99142.75;;;21.52;100.00
35435;BME280;21556;55.782;37.528;2022-07-10T05:26:08;99139.16;;;21.53;100.00
35435;BME280;21556;55.782;37.528;2022-07-10T05:28:33;99136.84;;;21.67;100.00
35435;BME280;21556;55.782;37.528;2022-07-10T05:30:59;99138.34;;;21.74;100.00
35435;BME280;21556;55.782;37.528;2022-07-10T05:33:26;99140.34;;;21.69;100.00
35435;BME280;21556;55.782;37.528;2022-07-10T05:35:55;99139.56;;;21.89;100.00
35435;BME280;21556;55.782;37.528;2022-07-10T05:38:25;99140.16;;;21.97;100.00
35435;BME280;21556;55.782;37.528;2022-07-10T05:40:51;99134.22;;;22.13;100.00
35435;BME280;21556;55.782;37.528;2022-07-10T05:43:18;99135.22;;;22.32;100.00
35435;BME280;21556;55.782;37.528;2022-07-10T05:45:44;99132.13;;;22.43;100.00
35435;BME280;21556;55.782;37.528;2022-07-10T05:48:10;99132.69;;;22.29;100.00
35435;BME280;21556;55.782;37.528;2022-07-10T05:50:37;99134.38;;;22.31;100.00
35435;BME280;21556;55.782;37.528;2022-07-10T05:53:04;99140.34;;;22.38;100.00
35435;BME280;21556;55.782;37.528;2022-07-10T05:55:30;99149.22;;;22.61;100.00
35435;BME280;21556;55.782;37.528;2022-07-10T05:57:56;99151.78;;;22.64;100.00
35435;BME280;21556;55.782;37.528;2022-07-10T06:00:22;99151.44;;;22.71;100.00
35435;BME280;21556;55.782;37.528;2022-07-10T06:02:49;99161.47;;;22.66;100.00
35435;BME280;21556;55.782;37.528;2022-07-10T06:05:15;99153.13;;;22.74;100.00
35435;BME280;21556;55.782;37.528;2022-07-10T06:07:41;99145.25;;;22.91;100.00
35435;BME280;21556;55.782;37.528;2022-07-10T06:10:07;99149.25;;;22.81;100.00
35435;BME280;21556;55.782;37.528;2022-07-10T06:12:33;99140.34;;;23.23;100.00
35435;BME280;21556;55.782;37.528;2022-07-10T06:14:59;99137.97;;;23.56;100.00
35435;BME280;21556;55.782;37.528;2022-07-10T06:17:25;99129.72;;;23.81;100.00
35435;BME280;21556;55.782;37.528;2022-07-10T06:19:51;99135.00;;;23.83;100.00
35435;BME280;21556;55.782;37.528;2022-07-10T06:22:17;99140.00;;;23.71;100.00
35435;BME280;21556;55.782;37.528;2022-07-10T06:25:09;99141.16;;;23.85;100.00
35435;BME280;21556;55.782;37.528;2022-07-10T06:27:36;99135.84;;;24.21;100.00
35435;BME280;21556;55.782;37.528;2022-07-10T06:30:02;99137.38;;;24.26;100.00
35435;BME280;21556;55.782;37.528;2022-07-10T06:32:29;99139.50;;;24.01;100.00
35435;BME280;21556;55.782;37.528;2022-07-10T06:34:56;99141.09;;;23.86;100.00
35435;BME280;21556;55.782;37.528;2022-07-10T06:37:22;99136.97;;;23.79;100.00
35435;BME280;21556;55.782;37.528;2022-07-10T06:39:48;99127.19;;;23.97;100.00
35435;BME280;21556;55.782;37.528;2022-07-10T06:42:15;99129.22;;;24.30;100.00
35435;BME280;21556;55.782;37.528;2022-07-10T06:44:46;99129.16;;;24.67;100.00
35435;BME280;21556;55.782;37.528;2022-07-10T06:47:13;99134.38;;;24.33;100.00
35435;BME280;21556;55.782;37.528;2022-07-10T06:49:57;99133.53;;;24.32;100.00
35435;BME280;21556;55.782;37.528;2022-07-10T06:52:24;99143.31;;;24.14;100.00
35435;BME280;21556;55.782;37.528;2022-07-10T06:54:50;99137.91;;;23.97;100.00
35435;BME280;21556;55.782;37.528;2022-07-10T06:57:16;99139.03;;;24.29;100.00
35435;BME280;21556;55.782;37.528;2022-07-10T06:59:46;99139.22;;;24.26;100.00
35435;BME280;21556;55.782;37.528;2022-07-10T07:02:16;99136.38;;;24.65;100.00
35435;BME280;21556;55.782;37.528;2022-07-10T07:04:46;99130.34;;;24.96;100.00
35435;BME280;21556;55.782;37.528;2022-07-10T07:07:13;99124.09;;;24.79;100.00
35435;BME280;21556;55.782;37.528;2022-07-10T07:09:41;99131.00;;;24.84;100.00
35435;BME280;21556;55.782;37.528;2022-07-10T07:12:09;99129.06;;;24.52;100.00
35435;BME280;21556;55.782;37.528;2022-07-10T07:14:36;99132.44;;;24.36;100.00
35435;BME280;21556;55.782;37.528;2022-07-10T07:17:03;99139.44;;;24.40;100.00
35435;BME280;21556;55.782;37.528;2022-07-10T07:26:58;99140.59;;;26.38;100.00
35435;BME280;21556;55.782;37.528;2022-07-10T07:30:13;99141.38;;;26.72;100.00
35435;BME280;21556;55.782;37.528;2022-07-10T07:33:07;99148.44;;;27.49;100.00
35435;BME280;21556;55.782;37.528;2022-07-10T07:39:45;99134.13;;;28.74;100.00
35435;BME280;21556;55.782;37.528;2022-07-10T07:45:55;99129.34;;;28.92;93.30
35435;BME280;21556;55.782;37.528;2022-07-10T07:48:52;99138.16;;;27.99;100.00
35435;BME280;21556;55.782;37.528;2022-07-10T07:51:24;99151.53;;;26.67;100.00
35435;BME280;21556;55.782;37.528;2022-07-10T07:53:52;99150.06;;;26.46;100.00
35435;BME280;21556;55.782;37.528;2022-07-10T07:56:20;99144.88;;;26.27;100.00
35435;BME280;21556;55.782;37.528;2022-07-10T07:58:48;99149.19;;;25.98;100.00
35435;BME280;21556;55.782;37.528;2022-07-10T08:01:15;99150.75;;;25.86;100.00
35435;BME280;21556;55.782;37.528;2022-07-10T08:03:49;99147.63;;;25.60;100.00
35435;BME280;21556;55.782;37.528;2022-07-10T08:07:36;99144.81;;;25.29;100.00
35435;BME280;21556;55.782;37.528;2022-07-10T08:14:25;99141.34;;;25.09;100.00
35435;BME280;21556;55.782;37.528;2022-07-10T08:24:36;99147.19;;;25.17;100.00
35435;BME280;21556;55.782;37.528;2022-07-10T08:34:45;99143.66;;;25.67;100.00
35435;BME280;21556;55.782;37.528;2022-07-10T08:37:10;99144.56;;;26.00;100.00
35435;BME280;21556;55.782;37.528;2022-07-10T08:39:36;99129.44;;;26.14;100.00
35435;BME280;21556;55.782;37.528;2022-07-10T08:42:05;99135.41;;;26.35;100.00
35435;BME280;21556;55.782;37.528;2022-07-10T08:44:31;99133.16;;;26.28;100.00
35435;BME280;21556;55.782;37.528;2022-07-10T08:46:58;99127.44;;;26.66;100.00
35435;BME280;21556;55.782;37.528;2022-07-10T08:49:28;99133.50;;;26.99;100.00
35435;BME280;21556;55.782;37.528;2022-07-10T08:51:57;99131.63;;;26.85;100.00
35435;BME280;21556;55.782;37.528;2022-07-10T08:54:26;99129.50;;;26.45;100.00
35435;BME280;21556;55.782;37.528;2022-07-10T08:56:53;99125.88;;;26.30;100.00
35435;BME280;21556;55.782;37.528;2022-07-10T08:59:20;99125.41;;;26.22;100.00
35435;BME280;21556;55.782;37.528;2022-07-10T09:01:48;99132.25;;;26.43;100.00
35435;BME280;21556;55.782;37.528;2022-07-10T09:04:18;99136.69;;;26.76;100.00
35435;BME280;21556;55.782;37.528;2022-07-10T09:06:45;99127.72;;;27.21;100.00
35435;BME280;21556;55.782;37.528;2022-07-10T09:09:10;99118.22;;;27.73;100.00
35435;BME280;21556;55.782;37.528;2022-07-10T09:11:40;99107.06;;;27.50;100.00
35435;BME280;21556;55.782;37.528;2022-07-10T09:14:10;99114.66;;;27.44;100.00
35435;BME280;21556;55.782;37.528;2022-07-10T09:16:40;99114.34;;;27.34;100.00
35435;BME280;21556;55.782;37.528;2022-07-10T09:19:22;99122.38;;;27.05;98.44
35435;BME280;21556;55.782;37.528;2022-07-10T09:21:53;99109.84;;;27.20;98.20
35435;BME280;21556;55.782;37.528;2022-07-10T09:24:21;99105.22;;;27.36;96.55
35435;BME280;21556;55.782;37.528;2022-07-10T09:27:00;99119.00;;;27.32;95.41
35435;BME280;21556;55.782;37.528;2022-07-10T09:29:27;99103.00;;;27.29;100.00
35435;BME280;21556;55.782;37.528;2022-07-10T09:32:03;99110.94;;;27.46;99.92
35435;BME280;21556;55.782;37.528;2022-07-10T09:34:45;99110.06;;;27.46;92.13
35435;BME280;21556;55.782;37.528;2022-07-10T09:37:25;99105.56;;;28.97;71.81
35435;BME280;21556;55.782;37.528;2022-07-10T09:40:05;99114.09;;;29.44;65.28
35435;BME280;21556;55.782;37.528;2022-07-10T09:48:00;99101.06;;;28.98;68.65
35435;BME280;21556;55.782;37.528;2022-07-10T09:50:36;99090.31;;;29.74;64.78
35435;BME280;21556;55.782;37.528;2022-07-10T09:53:08;99083.16;;;29.73;63.14
35435;BME280;21556;55.782;37.528;2022-07-10T09:55:37;99096.03;;;30.32;60.43
35435;BME280;21556;55.782;37.528;2022-07-10T09:58:06;99078.00;;;30.92;55.27
35435;BME280;21556;55.782;37.528;2022-07-10T10:00:34;99072.09;;;31.67;51.18
35435;BME280;21556;55.782;37.528;2022-07-10T10:03:00;99069.78;;;32.40;47.49
35435;BME280;21556;55.782;37.528;2022-07-10T10:05:42;99063.59;;;32.81;45.57
35435;BME280;21556;55.782;37.528;2022-07-10T10:10:52;99057.41;;;31.81;46.98
35435;BME280;21556;55.782;37.528;2022-07-10T10:13:20;99055.03;;;32.21;44.92
35435;BME280;21556;55.782;37.528;2022-07-10T10:15:49;99053.44;;;32.62;41.59
35435;BME280;21556;55.782;37.528;2022-07-10T10:18:26;99048.22;;;32.27;43.43
35435;BME280;21556;55.782;37.528;2022-07-10T10:20:54;99052.19;;;32.98;43.67
35435;BME280;21556;55.782;37.528;2022-07-10T10:23:22;99044.03;;;33.19;40.73
35435;BME280;21556;55.782;37.528;2022-07-10T10:25:51;99047.09;;;33.05;44.74
35435;BME280;21556;55.782;37.528;2022-07-10T10:28:19;99042.31;;;32.33;46.84
35435;BME280;21556;55.782;37.528;2022-07-10T10:30:53;99039.19;;;33.02;44.52
35435;BME280;21556;55.782;37.528;2022-07-10T10:36:00;99045.13;;;33.68;40.59
35435;BME280;21556;55.782;37.528;2022-07-10T10:41:38;99038.88;;;33.26;41.51
35435;BME280;21556;55.782;37.528;2022-07-10T10:46:33;99059.13;;;32.16;44.93
35435;BME280;21556;55.782;37.528;2022-07-10T10:49:06;99051.44;;;32.43;43.77
35435;BME280;21556;55.782;37.528;2022-07-10T10:52:17;99031.22;;;33.41;41.23
35435;BME280;21556;55.782;37.528;2022-07-10T10:55:03;99040.81;;;33.66;39.76
35435;BME280;21556;55.782;37.528;2022-07-10T11:00:03;99040.47;;;33.49;34.96
35435;BME280;21556;55.782;37.528;2022-07-10T11:02:34;99051.03;;;32.48;38.36
35435;BME280;21556;55.782;37.528;2022-07-10T11:08:00;99047.44;;;31.48;40.14
35435;BME280;21556;55.782;37.528;2022-07-10T11:10:30;99051.16;;;32.35;39.00
35435;BME280;21556;55.782;37.528;2022-07-10T11:13:09;99061.41;;;32.75;36.84
35435;BME280;21556;55.782;37.528;2022-07-10T11:15:43;99055.47;;;31.94;38.19
35435;BME280;21556;55.782;37.528;2022-07-10T11:18:11;99041.88;;;31.27;40.75
35435;BME280;21556;55.782;37.528;2022-07-10T11:20:39;99060.88;;;30.91;42.67
35435;BME280;21556;55.782;37.528;2022-07-10T11:26:12;99050.38;;;31.33;42.01
35435;BME280;21556;55.782;37.528;2022-07-10T11:28:58;99049.22;;;31.13;41.43
35435;BME280;21556;55.782;37.528;2022-07-10T11:31:26;99059.28;;;30.89;43.74
35435;BME280;21556;55.782;37.528;2022-07-10T11:33:55;99057.91;;;30.59;43.37
35435;BME280;21556;55.782;37.528;2022-07-10T11:36:23;99069.22;;;30.64;43.52
35435;BME280;21556;55.782;37.528;2022-07-10T11:39:07;99060.47;;;30.13;45.89
35435;BME280;21556;55.782;37.528;2022-07-10T11:41:41;99057.06;;;30.35;48.33
35435;BME280;21556;55.782;37.528;2022-07-10T11:44:13;99059.81;;;30.09;50.16
35435;BME280;21556;55.782;37.528;2022-07-10T11:46:45;99059.94;;;30.20;50.99
35435;BME280;21556;55.782;37.528;2022-07-10T11:49:13;99062.06;;;30.28;48.05
35435;BME280;21556;55.782;37.528;2022-07-10T11:51:41;99068.84;;;29.97;50.10
35435;BME280;21556;55.782;37.528;2022-07-10T11:54:10;99060.06;;;30.06;50.62
35435;BME280;21556;55.782;37.528;2022-07-10T11:56:42;99048.72;;;30.01;53.16
35435;BME280;21556;55.782;37.528;2022-07-10T11:59:14;99061.41;;;30.25;51.70
35435;BME280;21556;55.782;37.528;2022-07-10T12:01:42;99057.53;;;30.29;50.83
35435;BME280;21556;55.782;37.528;2022-07-10T12:04:09;99059.06;;;30.20;51.92
35435;BME280;21556;55.782;37.528;2022-07-10T12:06:38;99050.84;;;30.09;53.80
35435;BME280;21556;55.782;37.528;2022-07-10T12:09:04;99041.63;;;30.24;58.00
35435;BME280;21556;55.782;37.528;2022-07-10T12:11:31;99052.19;;;30.40;52.06
35435;BME280;21556;55.782;37.528;2022-07-10T12:14:18;99043.28;;;30.38;50.41
35435;BME280;21556;55.782;37.528;2022-07-10T12:16:46;99036.03;;;30.38;50.32
35435;BME280;21556;55.782;37.528;2022-07-10T12:19:26;99027.56;;;30.43;53.01
35435;BME280;21556;55.782;37.528;2022-07-10T12:21:54;99032.28;;;30.52;54.09
35435;BME280;21556;55.782;37.528;2022-07-10T12:24:20;99044.09;;;30.51;51.34
35435;BME280;21556;55.782;37.528;2022-07-10T12:26:47;99030.03;;;30.46;52.62
35435;BME280;21556;55.782;37.528;2022-07-10T12:29:23;99028.19;;;30.46;54.63
35435;BME280;21556;55.782;37.528;2022-07-10T12:31:54;99025.97;;;30.40;53.60
35435;BME280;21556;55.782;37.528;2022-07-10T12:34:33;99017.50;;;30.21;56.05
35435;BME280;21556;55.782;37.528;2022-07-10T12:37:12;99010.44;;;30.31;60.89
35435;BME280;21556;55.782;37.528;2022-07-10T12:39:47;98999.38;;;30.34;56.67
35435;BME280;21556;55.782;37.528;2022-07-10T12:42:30;98996.09;;;30.42;53.77
35435;BME280;21556;55.782;37.528;2022-07-10T12:45:12;98995.44;;;30.38;53.49
35435;BME280;21556;55.782;37.528;2022-07-10T12:47:47;98992.47;;;30.30;53.41
35435;BME280;21556;55.782;37.528;2022-07-10T12:50:16;98999.59;;;30.31;52.74
35435;BME280;21556;55.782;37.528;2022-07-10T12:52:43;99005.38;;;30.14;53.80
35435;BME280;21556;55.782;37.528;2022-07-10T12:57:57;98994.34;;;29.93;55.10
35435;BME280;21556;55.782;37.528;2022-07-10T13:00:32;99013.44;;;30.03;52.86
35435;BME280;21556;55.782;37.528;2022-07-10T13:03:04;98993.19;;;30.08;51.78
35435;BME280;21556;55.782;37.528;2022-07-10T13:05:43;98990.59;;;30.19;53.06
35435;BME280;21556;55.782;37.528;2022-07-10T13:08:22;98979.88;;;30.18;51.42
35435;BME280;21556;55.782;37.528;2022-07-10T13:10:54;98985.09;;;30.08;53.22
35435;BME280;21556;55.782;37.528;2022-07-10T13:13:20;98972.50;;;30.20;51.72
35435;BME280;21556;55.782;37.528;2022-07-10T13:15:53;98977.59;;;30.12;54.71
35435;BME280;21556;55.782;37.528;2022-07-10T13:18:20;98981.44;;;30.33;49.18
35435;BME280;21556;55.782;37.528;2022-07-10T13:20:51;98971.06;;;30.27;48.16
35435;BME280;21556;55.782;37.528;2022-07-10T13:23:17;98961.84;;;30.30;47.87
35435;BME280;21556;55.782;37.528;2022-07-10T13:25:55;98973.22;;;30.46;47.96
35435;BME280;21556;55.782;37.528;2022-07-10T13:28:22;98979.44;;;30.35;50.51
35435;BME280;21556;55.782;37.528;2022-07-10T13:30:48;98964.72;;;30.39;50.71
35435;BME280;21556;55.782;37.528;2022-07-10T13:33:14;98980.66;;;30.31;49.62
35435;BME280;21556;55.782;37.528;2022-07-10T13:35:40;98971.91;;;30.28;49.39
35435;BME280;21556;55.782;37.528;2022-07-10T13:38:07;98973.66;;;30.29;49.06
35435;BME280;21556;55.782;37.528;2022-07-10T13:40:35;98987.91;;;30.31;50.46
35435;BME280;21556;55.782;37.528;2022-07-10T13:43:03;98973.41;;;30.08;50.15
35435;BME280;21556;55.782;37.528;2022-07-10T13:45:30;98980.94;;;29.91;50.36
35435;BME280;21556;55.782;37.528;2022-07-10T13:48:03;98972.94;;;29.90;53.20
35435;BME280;21556;55.782;37.528;2022-07-10T13:50:30;98969.00;;;29.70;53.87
35435;BME280;21556;55.782;37.528;2022-07-10T13:53:16;98957.00;;;29.74;54.69
35435;BME280;21556;55.782;37.528;2022-07-10T13:55:42;98956.94;;;29.87;53.00